createdAt,value
2022-08-22T00:00:46.495Z,6.18
2022-08-22T00:02:48.245Z,3.72
2022-08-22T00:03:04.030Z,4.97
2022-08-22T00:03:27.521Z,6.82
2022-08-22T00:06:04.234Z,6.00
2022-08-22T00:08:40.110Z,6.82
2022-08-22T00:11:15.606Z,6.93
2022-08-22T00:13:54.834Z,7.03
2022-08-22T00:16:36.004Z,6.57
2022-08-22T00:19:16.512Z,6.75
2022-08-22T00:21:50.010Z,6.70
2022-08-22T00:24:27.943Z,5.95
2022-08-22T00:27:02.034Z,6.50
2022-08-22T00:29:38.518Z,6.40
2022-08-22T00:32:14.422Z,6.47
2022-08-22T00:34:54.379Z,6.20
2022-08-22T00:37:28.575Z,6.20
2022-08-22T00:40:03.716Z,5.90
2022-08-22T00:42:48.500Z,5.60
2022-08-22T00:45:59.532Z,6.30
2022-08-22T00:49:03.894Z,6.03
2022-08-22T00:51:52.968Z,5.63
2022-08-22T00:54:29.719Z,6.25
2022-08-22T00:57:23.059Z,6.05
2022-08-22T01:00:08.047Z,6.13
2022-08-22T01:02:53.394Z,6.77
2022-08-22T01:05:44.670Z,6.50
2022-08-22T01:08:28.394Z,7.17
2022-08-22T01:11:08.654Z,5.93
2022-08-22T01:13:52.972Z,6.07
2022-08-22T01:16:31.322Z,6.95
2022-08-22T01:19:26.788Z,6.38
2022-08-22T01:22:28.263Z,7.67
2022-08-22T01:25:45.228Z,6.40
2022-08-22T01:28:53.307Z,6.70
2022-08-22T01:31:53.034Z,6.43
2022-08-22T01:34:57.586Z,5.77
2022-08-22T01:37:54.027Z,7.13
2022-08-22T01:40:54.215Z,7.17
2022-08-22T01:43:43.848Z,6.93
2022-08-22T01:46:33.786Z,6.10
2022-08-22T01:49:11.279Z,7.10
2022-08-22T01:51:47.583Z,6.47
2022-08-22T01:54:27.350Z,5.88
2022-08-22T01:57:01.674Z,6.30
2022-08-22T01:59:42.456Z,6.43
2022-08-22T02:02:35.492Z,6.00
2022-08-22T02:05:10.330Z,7.00
2022-08-22T02:07:49.082Z,6.30
2022-08-22T02:10:23.753Z,7.83
2022-08-22T02:13:05.154Z,7.00
2022-08-22T02:15:45.476Z,6.93
2022-08-22T02:18:21.375Z,6.47
2022-08-22T02:21:06.111Z,6.90
2022-08-22T02:23:48.828Z,6.70
2022-08-22T02:26:21.242Z,6.33
2022-08-22T02:28:57.909Z,6.83
2022-08-22T02:31:40.439Z,6.90
2022-08-22T02:34:37.691Z,7.00
2022-08-22T02:37:11.524Z,5.70
2022-08-22T02:39:49.312Z,6.70
2022-08-22T02:42:25.106Z,6.60
2022-08-22T02:45:00.970Z,6.57
2022-08-22T02:47:35.183Z,6.70
2022-08-22T02:50:14.052Z,7.10
2022-08-22T02:52:54.906Z,6.90
2022-08-22T02:55:36.154Z,6.10
2022-08-22T02:58:12.208Z,6.20
2022-08-22T03:00:48.743Z,6.73
2022-08-22T03:03:21.346Z,6.17
2022-08-22T03:06:01.313Z,6.30
2022-08-22T03:08:32.416Z,6.53
2022-08-22T03:11:12.446Z,7.00
2022-08-22T03:13:53.256Z,7.30
2022-08-22T03:16:32.174Z,6.23
2022-08-22T03:19:07.122Z,7.17
2022-08-22T03:21:46.546Z,6.90
2022-08-22T03:24:22.232Z,7.13
2022-08-22T03:26:54.486Z,6.53
2022-08-22T03:29:28.051Z,7.83
2022-08-22T03:32:10.429Z,7.07
2022-08-22T03:34:38.747Z,6.87
2022-08-22T03:37:16.577Z,6.77
2022-08-22T03:39:55.047Z,6.83
2022-08-22T03:42:43.484Z,6.70
2022-08-22T03:45:39.832Z,6.37
2022-08-22T03:48:30.577Z,5.83
2022-08-22T03:51:25.785Z,6.20
2022-08-22T03:54:10.946Z,5.97
2022-08-22T03:57:17.896Z,6.07
2022-08-22T04:00:05.053Z,5.70
2022-08-22T04:03:07.313Z,5.60
2022-08-22T04:06:03.634Z,5.67
2022-08-22T04:08:56.461Z,5.97
2022-08-22T04:12:14.349Z,6.27
2022-08-22T04:15:09.140Z,5.97
2022-08-22T04:18:03.311Z,5.57
2022-08-22T04:21:00.664Z,6.03
2022-08-22T04:23:41.244Z,5.67
2022-08-22T04:26:15.410Z,6.30
2022-08-22T04:28:47.813Z,5.77
2022-08-22T04:31:23.483Z,5.77
2022-08-22T04:33:57.434Z,5.90
2022-08-22T04:36:30.316Z,5.70
2022-08-22T04:39:04.628Z,5.60
2022-08-22T04:41:42.789Z,5.10
2022-08-22T04:44:16.422Z,5.80
2022-08-22T04:46:49.931Z,6.17
2022-08-22T04:49:25.561Z,5.37
2022-08-22T04:51:58.797Z,5.93
2022-08-22T04:54:44.050Z,4.93
2022-08-22T04:57:26.055Z,4.90
2022-08-22T04:59:58.935Z,5.43
2022-08-22T05:02:28.574Z,5.23
2022-08-22T05:05:04.132Z,5.47
2022-08-22T05:07:36.461Z,6.23
2022-08-22T05:10:12.613Z,6.07
2022-08-22T05:12:45.090Z,5.80
2022-08-22T05:15:18.978Z,5.73
2022-08-22T05:17:55.952Z,5.93
2022-08-22T05:20:26.706Z,6.20
2022-08-22T05:22:58.934Z,6.03
2022-08-22T05:25:33.914Z,6.27
2022-08-22T05:28:11.865Z,6.47
2022-08-22T05:30:40.843Z,6.87
2022-08-22T05:33:17.217Z,6.67
2022-08-22T05:35:54.567Z,6.33
2022-08-22T05:38:31.371Z,6.40
2022-08-22T05:41:04.917Z,6.30
2022-08-22T05:43:36.324Z,6.68
2022-08-22T05:46:09.853Z,6.35
2022-08-22T05:48:43.659Z,6.82
2022-08-22T05:51:18.834Z,5.70
2022-08-22T05:53:51.429Z,5.40
2022-08-22T05:56:27.323Z,5.68
2022-08-22T05:59:01.632Z,5.43
2022-08-22T06:01:34.322Z,6.13
2022-08-22T06:04:15.454Z,5.10
2022-08-22T06:06:47.869Z,5.60
2022-08-22T06:09:20.528Z,5.90
2022-08-22T06:11:56.118Z,5.90
2022-08-22T06:14:33.775Z,5.05
2022-08-22T06:17:08.752Z,6.55
2022-08-22T06:19:41.773Z,5.35
2022-08-22T06:22:11.753Z,5.53
2022-08-22T06:24:49.031Z,5.82
2022-08-22T06:27:21.068Z,4.90
2022-08-22T06:29:53.280Z,5.57
2022-08-22T06:32:38.251Z,5.53
2022-08-22T06:35:22.734Z,5.90
2022-08-22T06:37:52.938Z,5.90
2022-08-22T06:40:21.018Z,6.60
2022-08-22T06:42:51.892Z,6.57
2022-08-22T06:45:23.050Z,6.90
2022-08-22T06:47:57.114Z,7.25
2022-08-22T06:50:33.352Z,6.90
2022-08-22T06:53:07.024Z,6.93
2022-08-22T06:55:36.951Z,6.63
2022-08-22T06:58:08.375Z,7.32
2022-08-22T07:00:38.004Z,7.38
2022-08-22T07:03:12.132Z,6.20
2022-08-22T07:05:43.381Z,6.15
2022-08-22T07:08:15.228Z,5.65
2022-08-22T07:10:45.148Z,6.47
2022-08-22T07:13:17.338Z,6.05
2022-08-22T07:15:51.658Z,5.75
2022-08-22T07:18:22.380Z,5.65
2022-08-22T07:20:54.985Z,5.55
2022-08-22T07:23:32.472Z,5.72
2022-08-22T07:26:22.913Z,5.40
2022-08-22T07:28:58.711Z,5.55
2022-08-22T07:31:34.996Z,5.63
2022-08-22T07:34:26.348Z,5.43
2022-08-22T07:37:02.514Z,5.28
2022-08-22T07:39:37.155Z,5.68
2022-08-22T07:42:13.823Z,5.40
2022-08-22T07:45:03.846Z,5.47
2022-08-22T07:47:58.283Z,5.10
2022-08-22T07:50:31.084Z,5.03
2022-08-22T07:53:09.148Z,4.80
2022-08-22T07:55:49.325Z,4.63
2022-08-22T07:58:19.332Z,4.40
2022-08-22T08:00:50.290Z,4.95
2022-08-22T08:03:21.699Z,4.43
2022-08-22T08:05:49.829Z,4.50
2022-08-22T08:08:25.228Z,4.22
2022-08-22T08:10:57.224Z,4.30
2022-08-22T08:13:29.935Z,4.70
2022-08-22T08:15:58.232Z,4.55
2022-08-22T08:18:31.183Z,4.03
2022-08-22T08:21:05.965Z,4.35
2022-08-22T08:23:39.683Z,4.47
2022-08-22T08:26:12.780Z,3.85
2022-08-22T08:28:44.223Z,4.43
2022-08-22T08:31:22.994Z,3.92
2022-08-22T08:33:54.984Z,4.20
2022-08-22T08:36:34.847Z,3.78
2022-08-22T08:39:14.373Z,3.92
2022-08-22T08:42:24.098Z,3.78
2022-08-22T08:45:17.948Z,3.72
2022-08-22T08:48:08.295Z,3.45
2022-08-22T08:50:52.979Z,3.35
2022-08-22T08:54:09.233Z,3.17
2022-08-22T08:56:48.330Z,3.00
2022-08-22T08:59:28.415Z,2.60
2022-08-22T09:05:38.130Z,2.80
2022-08-22T09:08:31.238Z,2.50
2022-08-22T09:11:48.088Z,2.20
2022-08-22T09:14:34.989Z,2.28
2022-08-22T09:17:22.309Z,2.10
2022-08-22T09:20:15.523Z,2.00
2022-08-22T09:23:13.981Z,1.80
2022-08-22T09:25:45.971Z,1.90
2022-08-22T09:28:20.556Z,2.17
2022-08-22T09:31:33.014Z,1.52
2022-08-22T09:34:23.877Z,2.25
2022-08-22T09:37:14.178Z,1.60
2022-08-22T09:39:51.772Z,1.75
2022-08-22T09:40:16.395Z,2.55
2022-08-22T09:42:24.558Z,1.70
2022-08-22T09:45:00.432Z,1.42
2022-08-22T09:47:35.115Z,2.17
2022-08-22T09:50:14.355Z,2.05
2022-08-22T09:52:55.250Z,1.80
2022-08-22T09:55:40.685Z,2.00
2022-08-22T09:58:19.416Z,1.73
2022-08-22T10:00:56.623Z,2.10
2022-08-22T10:03:34.146Z,2.40
2022-08-22T10:06:11.133Z,2.10
2022-08-22T10:08:45.842Z,1.95
2022-08-22T10:11:23.880Z,2.20
2022-08-22T10:14:01.266Z,2.30
2022-08-22T10:16:54.596Z,2.08
2022-08-22T10:19:31.976Z,2.22
2022-08-22T10:22:24.073Z,2.08
2022-08-22T10:25:08.847Z,2.38
2022-08-22T10:27:54.019Z,2.20
2022-08-22T10:30:26.211Z,2.28
2022-08-22T10:33:05.717Z,2.28
2022-08-22T10:35:40.791Z,2.35
2022-08-22T10:38:14.306Z,1.83
2022-08-22T10:40:50.315Z,2.20
2022-08-22T10:43:28.784Z,2.28
2022-08-22T10:46:03.735Z,2.05
2022-08-22T10:48:37.248Z,2.28
2022-08-22T10:51:16.711Z,2.45
2022-08-22T10:53:58.964Z,1.90
2022-08-22T10:56:34.014Z,2.30
2022-08-22T10:59:09.564Z,1.88
2022-08-22T11:01:46.059Z,2.03
2022-08-22T11:04:31.287Z,2.20
2022-08-22T11:07:14.392Z,1.98
2022-08-22T11:09:44.538Z,2.00
2022-08-22T11:12:23.358Z,2.05
2022-08-22T11:15:07.390Z,1.80
2022-08-22T11:18:07.428Z,1.80
2022-08-22T11:20:51.433Z,1.88
2022-08-22T11:23:36.451Z,1.60
2022-08-22T11:26:13.344Z,1.80
2022-08-22T11:29:15.752Z,1.65
2022-08-22T11:31:51.720Z,1.70
2022-08-22T11:34:32.082Z,2.00
2022-08-22T11:37:11.565Z,1.65
2022-08-22T11:39:47.974Z,1.83
2022-08-22T11:42:23.423Z,1.60
2022-08-22T11:44:55.477Z,1.92
2022-08-22T11:47:30.709Z,1.90
2022-08-22T11:50:03.725Z,1.77
2022-08-22T11:52:57.261Z,1.98
2022-08-22T11:55:34.403Z,1.98
2022-08-22T11:58:20.118Z,1.80
2022-08-22T12:00:56.391Z,1.60
2022-08-22T12:03:55.895Z,2.22
2022-08-22T12:06:48.342Z,1.67
2022-08-22T12:09:31.823Z,1.85
2022-08-22T12:12:21.653Z,1.88
2022-08-22T12:14:58.037Z,1.77
2022-08-22T12:18:01.565Z,1.60
2022-08-22T12:21:09.082Z,1.73
2022-08-22T12:24:19.371Z,1.63
2022-08-22T12:27:07.748Z,1.80
2022-08-22T12:29:45.733Z,1.90
2022-08-22T12:32:49.056Z,1.55
2022-08-22T12:35:29.688Z,1.85
2022-08-22T12:38:29.309Z,1.77
2022-08-22T12:41:28.064Z,1.77
2022-08-22T12:44:24.360Z,1.88
2022-08-22T12:47:09.881Z,1.95
2022-08-22T12:49:58.295Z,1.80
2022-08-22T12:52:44.861Z,1.75
2022-08-22T12:55:24.879Z,1.77
2022-08-22T12:58:03.291Z,1.42
2022-08-22T13:00:35.458Z,1.60
2022-08-22T13:03:09.583Z,1.63
2022-08-22T13:05:45.183Z,1.65
2022-08-22T13:08:29.072Z,1.80
2022-08-22T13:11:01.238Z,2.10
2022-08-22T13:13:36.876Z,2.20
2022-08-22T13:16:08.066Z,1.83
2022-08-22T13:18:44.690Z,1.90
2022-08-22T13:21:16.464Z,2.25
2022-08-22T13:23:48.587Z,2.10
2022-08-22T13:26:21.823Z,1.88
2022-08-22T13:29:24.513Z,1.70
2022-08-22T13:31:55.166Z,1.80
2022-08-22T13:34:39.908Z,1.75
2022-08-22T13:37:14.559Z,2.03
2022-08-22T13:39:46.855Z,2.30
2022-08-22T13:42:30.261Z,2.20
2022-08-22T13:45:05.183Z,2.05
2022-08-22T13:47:39.581Z,2.30
2022-08-22T13:50:19.073Z,2.08
2022-08-22T13:52:55.053Z,1.70
2022-08-22T13:55:29.951Z,1.98
2022-08-22T13:58:03.238Z,1.77
2022-08-22T14:01:16.741Z,2.33
2022-08-22T14:03:50.047Z,2.20
2022-08-22T14:06:37.374Z,1.73
2022-08-22T14:09:14.504Z,2.00
2022-08-22T14:11:48.020Z,2.20
2022-08-22T14:14:23.834Z,1.90
2022-08-22T14:16:56.188Z,2.00
2022-08-22T14:19:34.964Z,2.30
2022-08-22T14:22:31.866Z,2.45
2022-08-22T14:25:07.239Z,2.20
2022-08-22T14:27:39.709Z,1.95
2022-08-22T14:30:15.668Z,2.38
2022-08-22T14:32:48.470Z,1.98
2022-08-22T14:35:35.258Z,2.08
2022-08-22T14:38:29.948Z,2.60
2022-08-22T14:41:03.231Z,2.60
2022-08-22T14:43:49.266Z,1.85
2022-08-22T14:46:26.560Z,2.25
2022-08-22T14:49:14.443Z,2.03
2022-08-22T14:51:50.714Z,2.78
2022-08-22T14:54:22.688Z,2.50
2022-08-22T14:56:58.003Z,2.17
2022-08-22T14:59:33.159Z,2.17
2022-08-22T15:02:03.728Z,1.88
2022-08-22T15:04:40.914Z,2.50
2022-08-22T15:07:14.720Z,2.28
2022-08-22T15:09:53.759Z,1.85
2022-08-22T15:12:27.943Z,2.00
2022-08-22T15:14:59.251Z,1.88
2022-08-22T15:17:44.042Z,1.95
2022-08-22T15:20:27.815Z,2.03
2022-08-22T15:22:58.427Z,2.90
2022-08-22T15:25:31.187Z,2.38
2022-08-22T15:28:05.217Z,1.88
2022-08-22T15:30:44.531Z,1.90
2022-08-22T15:33:17.096Z,1.83
2022-08-22T15:35:48.306Z,2.20
2022-08-22T15:38:28.631Z,2.38
2022-08-22T15:41:31.204Z,2.22
2022-08-22T15:44:08.965Z,2.20
2022-08-22T15:46:45.952Z,1.90
2022-08-22T15:49:27.661Z,1.85
2022-08-22T15:52:11.118Z,2.08
2022-08-22T15:55:18.637Z,4.63
2022-08-22T15:58:02.574Z,2.42
2022-08-22T16:00:35.455Z,2.10
2022-08-22T16:03:06.974Z,2.17
2022-08-22T16:05:55.702Z,2.25
2022-08-22T16:08:28.188Z,2.08
2022-08-22T16:11:32.969Z,2.10
2022-08-22T16:14:22.594Z,2.00
2022-08-22T16:16:59.756Z,2.05
2022-08-22T16:19:30.333Z,2.35
2022-08-22T16:22:14.758Z,1.95
2022-08-22T16:25:14.240Z,2.10
2022-08-22T16:27:55.357Z,2.20
2022-08-22T16:30:35.596Z,2.40
2022-08-22T16:33:04.480Z,2.17
2022-08-22T16:36:25.727Z,2.13
2022-08-22T16:38:57.601Z,2.20
2022-08-22T16:41:32.195Z,1.95
2022-08-22T16:44:23.573Z,1.88
2022-08-22T16:46:54.747Z,1.80
2022-08-22T16:49:29.434Z,1.95
2022-08-22T16:52:34.535Z,2.00
2022-08-22T16:55:04.761Z,1.90
2022-08-22T16:57:59.388Z,2.03
2022-08-22T17:00:41.377Z,1.80
2022-08-22T17:03:18.150Z,2.10
2022-08-22T17:05:56.866Z,1.92
2022-08-22T17:08:40.375Z,1.88
2022-08-22T17:11:20.366Z,1.95
2022-08-22T17:14:16.053Z,1.95
2022-08-22T17:16:56.444Z,2.00
2022-08-22T17:19:43.932Z,1.90
2022-08-22T17:22:25.978Z,1.75
2022-08-22T17:25:10.020Z,2.20
2022-08-22T17:27:40.951Z,2.22
2022-08-22T17:30:13.406Z,2.28
2022-08-22T17:32:59.124Z,1.55
2022-08-22T17:35:45.228Z,2.00
2022-08-22T17:38:24.098Z,1.80
2022-08-22T17:41:03.301Z,1.70
2022-08-22T17:43:48.561Z,2.03
2022-08-22T17:46:31.189Z,1.80
2022-08-22T17:49:13.171Z,1.58
2022-08-22T17:51:48.832Z,1.58
2022-08-22T17:54:21.501Z,1.80
2022-08-22T17:57:02.687Z,1.88
2022-08-22T17:59:40.767Z,1.58
2022-08-22T18:02:16.290Z,1.65
2022-08-22T18:04:50.350Z,1.70
2022-08-22T18:07:30.837Z,1.60
2022-08-22T18:10:04.717Z,1.40
2022-08-22T18:12:38.751Z,1.77
2022-08-22T18:15:12.279Z,1.80
2022-08-22T18:17:48.191Z,1.92
2022-08-22T18:20:23.908Z,1.75
2022-08-22T18:22:57.287Z,1.35
2022-08-22T18:25:39.694Z,1.75
2022-08-22T18:28:13.862Z,1.38
2022-08-22T18:30:55.292Z,1.65
2022-08-22T18:33:32.837Z,1.50
2022-08-22T18:36:08.959Z,1.33
2022-08-22T18:38:46.621Z,1.83
2022-08-22T18:41:23.459Z,1.75
2022-08-22T18:43:54.382Z,1.70
2022-08-22T18:46:46.861Z,1.70
2022-08-22T18:49:42.121Z,1.85
2022-08-22T18:52:17.620Z,1.80
2022-08-22T18:55:06.984Z,1.80
2022-08-22T18:57:54.804Z,1.70
2022-08-22T19:00:25.211Z,1.67
2022-08-22T19:03:26.065Z,1.60
2022-08-22T19:06:33.072Z,1.60
2022-08-22T19:09:21.817Z,1.83
2022-08-22T19:12:01.626Z,1.77
2022-08-22T19:14:50.462Z,2.22
2022-08-22T19:17:40.058Z,2.75
2022-08-22T19:20:32.117Z,1.90
2022-08-22T19:23:33.152Z,1.88
2022-08-22T19:26:24.476Z,1.70
2022-08-22T19:28:56.241Z,1.80
2022-08-22T19:31:43.028Z,1.80
2022-08-22T19:34:17.991Z,1.92
2022-08-22T19:36:47.156Z,2.10
2022-08-22T19:39:51.188Z,1.70
2022-08-22T19:42:31.957Z,2.05
2022-08-22T19:45:10.085Z,1.70
2022-08-22T19:47:41.139Z,1.88
2022-08-22T19:50:14.626Z,1.80
2022-08-22T19:52:58.568Z,2.05
2022-08-22T19:55:34.571Z,2.05
2022-08-22T19:58:16.659Z,1.80
2022-08-22T20:00:54.170Z,2.10
2022-08-22T20:03:34.964Z,2.10
2022-08-22T20:06:22.028Z,2.08
2022-08-22T20:09:09.271Z,2.10
2022-08-22T20:11:45.383Z,2.13
2022-08-22T20:14:24.949Z,2.38
2022-08-22T20:17:40.139Z,2.40
2022-08-22T20:20:17.350Z,1.90
2022-08-22T20:22:52.840Z,2.22
2022-08-22T20:25:42.047Z,2.47
2022-08-22T20:28:36.462Z,2.60
2022-08-22T20:31:12.398Z,2.40
2022-08-22T20:33:46.163Z,2.08
2022-08-22T20:36:28.636Z,2.50
2022-08-22T20:39:00.919Z,1.70
2022-08-22T20:41:33.391Z,2.00
2022-08-22T20:44:06.848Z,2.22
2022-08-22T20:46:47.230Z,2.15
2022-08-22T20:49:25.671Z,2.10
2022-08-22T20:51:56.494Z,2.20
2022-08-22T20:54:26.171Z,2.47
2022-08-22T20:56:57.007Z,2.28
2022-08-22T20:59:30.531Z,2.40
2022-08-22T21:02:05.309Z,1.95
2022-08-22T21:04:43.633Z,2.00
2022-08-22T21:07:11.865Z,2.28
2022-08-22T21:09:57.138Z,1.95
2022-08-22T21:12:26.348Z,2.45
2022-08-22T21:14:54.150Z,2.42
2022-08-22T21:17:25.631Z,2.22
2022-08-22T21:19:57.686Z,2.22
2022-08-22T21:22:31.587Z,2.35
2022-08-22T21:25:01.382Z,2.35
2022-08-22T21:27:31.672Z,2.80
2022-08-22T21:30:01.291Z,2.42
2022-08-22T21:32:37.472Z,2.47
2022-08-22T21:35:20.191Z,2.58
2022-08-22T21:37:48.309Z,2.28
2022-08-22T21:40:20.540Z,2.70
2022-08-22T21:43:00.988Z,2.65
2022-08-22T21:45:32.876Z,2.70
2022-08-22T21:48:02.028Z,3.00
2022-08-22T21:50:38.145Z,2.63
2022-08-22T21:53:11.940Z,3.50
2022-08-22T21:55:44.414Z,3.25
2022-08-22T21:58:37.036Z,2.60
2022-08-22T22:01:29.289Z,2.30
2022-08-22T22:03:58.329Z,2.50
2022-08-22T22:06:28.505Z,2.55
2022-08-22T22:08:56.302Z,2.42
2022-08-22T22:11:24.061Z,2.70
2022-08-22T22:13:52.181Z,2.40
2022-08-22T22:16:26.637Z,2.55
2022-08-22T22:18:55.125Z,2.40
2022-08-22T22:21:22.931Z,2.58
2022-08-22T22:23:52.496Z,2.60
2022-08-22T22:26:21.358Z,2.60
2022-08-22T22:28:50.197Z,2.50
2022-08-22T22:31:18.509Z,2.53
2022-08-22T22:33:46.617Z,2.80
2022-08-22T22:36:17.359Z,2.70
2022-08-22T22:38:46.118Z,2.50
2022-08-22T22:41:15.374Z,2.63
2022-08-22T22:43:43.148Z,2.47
2022-08-22T22:46:10.863Z,2.67
2022-08-22T22:48:38.772Z,2.80
2022-08-22T22:51:08.695Z,2.97
2022-08-22T22:53:40.184Z,2.60
2022-08-22T22:56:13.272Z,2.97
2022-08-22T22:58:42.766Z,2.55
2022-08-22T23:01:13.224Z,2.85
2022-08-22T23:03:41.100Z,2.75
2022-08-22T23:06:12.770Z,2.88
2022-08-22T23:08:41.168Z,3.28
2022-08-22T23:11:11.678Z,2.85
2022-08-22T23:13:39.701Z,2.63
2022-08-22T23:16:12.702Z,3.10
2022-08-22T23:18:40.621Z,3.25
2022-08-22T23:21:12.492Z,3.20
2022-08-22T23:23:40.300Z,3.17
2022-08-22T23:26:08.472Z,3.97
2022-08-22T23:28:36.524Z,3.33
2022-08-22T23:31:14.121Z,3.22
2022-08-22T23:33:41.926Z,2.47
2022-08-22T23:36:14.452Z,3.13
2022-08-22T23:38:42.991Z,2.90
2022-08-22T23:41:12.003Z,3.13
2022-08-22T23:43:43.438Z,3.30
2022-08-22T23:46:13.157Z,3.33
2022-08-22T23:48:41.306Z,3.42
2022-08-22T23:51:10.846Z,3.45
2022-08-22T23:53:39.057Z,3.20
2022-08-22T23:56:19.507Z,3.13
2022-08-22T23:58:49.054Z,3.42
